createdAt,value
2019-03-31T00:02:35.747Z,46.83
2019-03-31T00:07:38.972Z,52.83
2019-03-31T00:12:42.240Z,52.50
2019-03-31T00:17:45.480Z,44.90
2019-03-31T00:22:48.889Z,39.77
2019-03-31T00:27:51.915Z,37.00
2019-03-31T00:32:56.869Z,32.47
2019-03-31T00:37:59.920Z,33.20
2019-03-31T00:43:03.270Z,31.23
2019-03-31T00:48:06.475Z,28.37
2019-03-31T00:53:09.685Z,28.87
2019-03-31T00:58:12.760Z,26.03
2019-03-31T01:03:17.444Z,26.27
2019-03-31T01:08:21.697Z,24.03
2019-03-31T01:13:24.740Z,24.23
2019-03-31T01:18:27.796Z,23.97
2019-03-31T01:23:31.099Z,22.73
2019-03-31T01:28:34.191Z,21.00
2019-03-31T01:33:38.035Z,21.47
2019-03-31T01:38:41.382Z,19.67
2019-03-31T01:43:44.553Z,19.17
2019-03-31T01:48:47.768Z,17.67
2019-03-31T01:53:50.820Z,14.40
2019-03-31T01:58:53.880Z,16.43
2019-03-31T02:03:57.316Z,15.07
2019-03-31T02:09:00.606Z,15.03
2019-03-31T02:14:03.984Z,12.67
2019-03-31T02:19:07.334Z,16.03
2019-03-31T02:24:11.612Z,14.40
2019-03-31T02:29:14.704Z,16.90
2019-03-31T02:34:17.807Z,18.27
2019-03-31T02:39:21.131Z,18.10
2019-03-31T02:44:24.614Z,17.73
2019-03-31T02:49:28.139Z,19.73
2019-03-31T02:54:31.657Z,18.07
2019-03-31T02:59:36.523Z,18.67
2019-03-31T03:04:41.389Z,17.00
2019-03-31T03:09:46.961Z,16.57
2019-03-31T03:14:52.171Z,15.70
2019-03-31T03:19:55.224Z,15.40
2019-03-31T03:24:58.271Z,13.77
2019-03-31T03:30:01.735Z,13.67
2019-03-31T03:35:05.559Z,10.80
2019-03-31T03:40:10.519Z,9.37
2019-03-31T03:45:13.495Z,8.53
2019-03-31T03:50:16.795Z,8.10
2019-03-31T03:55:19.905Z,5.77
2019-03-31T04:00:22.951Z,4.23
2019-03-31T04:05:26.024Z,3.67
2019-03-31T04:11:08.650Z,2.47
2019-03-31T04:16:11.761Z,1.40
2019-03-31T04:21:14.926Z,1.03
2019-03-31T04:26:18.103Z,1.17
2019-03-31T04:31:21.491Z,1.07
2019-03-31T04:36:24.704Z,1.03
2019-03-31T04:41:27.713Z,1.20
2019-03-31T04:46:31.929Z,1.17
2019-03-31T04:51:36.336Z,1.33
2019-03-31T04:56:39.616Z,1.60
2019-03-31T05:01:44.730Z,1.50
2019-03-31T05:06:47.632Z,1.90
2019-03-31T05:11:50.721Z,1.90
2019-03-31T05:16:54.072Z,1.90
2019-03-31T05:21:57.719Z,2.00
2019-03-31T05:27:00.775Z,2.17
2019-03-31T05:32:04.142Z,1.80
2019-03-31T05:37:07.527Z,2.07
2019-03-31T05:42:10.655Z,2.20
2019-03-31T05:47:13.950Z,1.90
2019-03-31T05:52:17.157Z,2.00
2019-03-31T05:57:20.288Z,1.60
2019-03-31T06:02:23.578Z,2.00
2019-03-31T06:07:27.095Z,2.13
2019-03-31T06:12:30.130Z,2.50
2019-03-31T06:17:34.450Z,1.97
2019-03-31T06:22:37.567Z,1.80
2019-03-31T06:27:40.612Z,2.30
2019-03-31T06:32:43.653Z,2.83
2019-03-31T06:37:46.705Z,2.60
2019-03-31T06:42:49.877Z,2.70
2019-03-31T06:47:52.975Z,1.77
2019-03-31T06:52:56.059Z,2.73
2019-03-31T06:57:59.403Z,1.90
2019-03-31T07:03:02.460Z,2.93
2019-03-31T07:08:06.995Z,2.03
2019-03-31T07:13:10.059Z,1.97
2019-03-31T07:18:15.885Z,2.37
2019-03-31T07:23:19.858Z,1.90
2019-03-31T07:28:23.071Z,2.10
2019-03-31T07:33:26.072Z,2.00
2019-03-31T07:38:38.803Z,2.20
2019-03-31T07:43:34.239Z,2.07
2019-03-31T07:48:37.384Z,1.93
2019-03-31T07:53:40.459Z,2.80
2019-03-31T07:58:43.946Z,2.30
2019-03-31T08:03:47.387Z,1.93
2019-03-31T08:08:53.253Z,1.90
2019-03-31T08:13:55.961Z,1.70
2019-03-31T08:18:59.170Z,1.90
2019-03-31T08:24:02.409Z,1.87
2019-03-31T08:29:05.548Z,1.90
2019-03-31T08:34:08.799Z,2.17
2019-03-31T08:39:12.318Z,3.27
2019-03-31T08:44:15.526Z,1.73
2019-03-31T08:49:18.736Z,1.43
2019-03-31T08:54:22.254Z,1.57
2019-03-31T08:59:25.464Z,2.10
2019-03-31T09:04:28.675Z,1.60
2019-03-31T09:09:32.200Z,1.57
2019-03-31T09:14:35.403Z,1.67
2019-03-31T09:19:38.614Z,1.03
2019-03-31T09:24:41.823Z,1.87
2019-03-31T09:29:45.041Z,1.03
2019-03-31T09:34:48.250Z,1.20
2019-03-31T09:39:51.456Z,1.13
2019-03-31T09:44:54.664Z,1.50
2019-03-31T09:49:58.182Z,1.37
2019-03-31T09:55:01.393Z,1.73
2019-03-31T10:00:06.483Z,1.70
2019-03-31T10:05:10.502Z,1.57
2019-03-31T10:10:31.661Z,1.43
2019-03-31T10:15:35.137Z,0.93
2019-03-31T10:20:38.334Z,2.17
2019-03-31T10:25:41.546Z,1.67
2019-03-31T10:30:46.496Z,1.43
2019-03-31T10:35:49.812Z,1.23
2019-03-31T10:40:53.941Z,1.30
2019-03-31T10:45:57.180Z,0.97
2019-03-31T10:51:01.590Z,1.63
2019-03-31T10:56:05.867Z,1.07
2019-03-31T11:01:09.244Z,1.20
2019-03-31T11:06:12.757Z,0.97
2019-03-31T11:11:17.815Z,1.10
2019-03-31T11:16:30.164Z,0.97
2019-03-31T11:21:55.874Z,1.20
2019-03-31T11:26:59.084Z,1.10
2019-03-31T11:32:21.701Z,0.70
2019-03-31T11:37:34.842Z,0.70
2019-03-31T11:42:50.136Z,0.90
2019-03-31T11:47:54.331Z,0.73
2019-03-31T11:53:43.927Z,0.70
2019-03-31T11:59:20.964Z,1.00
2019-03-31T12:04:55.467Z,1.07
2019-03-31T12:10:10.046Z,0.97
2019-03-31T12:15:28.306Z,0.90
2019-03-31T12:20:41.481Z,1.33
2019-03-31T12:26:12.523Z,1.10
2019-03-31T12:31:21.133Z,1.10
2019-03-31T12:42:01.974Z,1.53
2019-03-31T12:47:08.277Z,1.17
2019-03-31T12:52:13.195Z,1.30
2019-03-31T12:57:16.319Z,0.80
2019-03-31T13:02:19.586Z,0.80
2019-03-31T13:07:22.739Z,1.00
2019-03-31T13:12:26.256Z,0.93
2019-03-31T13:17:30.484Z,1.30
2019-03-31T13:22:33.907Z,1.53
2019-03-31T13:27:37.146Z,0.90
2019-03-31T13:32:40.249Z,0.87
2019-03-31T13:37:43.770Z,1.50
2019-03-31T13:42:47.059Z,1.30
2019-03-31T13:47:50.575Z,1.47
2019-03-31T13:52:54.094Z,1.30
2019-03-31T13:57:59.520Z,1.60
2019-03-31T14:03:04.200Z,1.43
2019-03-31T14:08:07.799Z,1.67
2019-03-31T14:13:12.774Z,1.73
2019-03-31T14:18:16.006Z,1.47
2019-03-31T14:23:19.190Z,1.30
2019-03-31T14:28:22.405Z,1.10
2019-03-31T14:33:25.646Z,1.57
2019-03-31T14:38:39.916Z,1.40
2019-03-31T14:43:34.491Z,1.20
2019-03-31T14:48:37.702Z,1.00
2019-03-31T14:53:41.219Z,1.07
2019-03-31T14:58:44.428Z,1.37
2019-03-31T15:03:47.712Z,1.00
2019-03-31T15:08:54.646Z,1.23
2019-03-31T15:13:55.919Z,1.20
2019-03-31T15:18:59.037Z,1.20
2019-03-31T15:24:04.031Z,0.80
2019-03-31T15:29:07.376Z,1.60
2019-03-31T15:34:10.594Z,1.50
2019-03-31T15:39:13.828Z,1.30
2019-03-31T15:44:17.011Z,1.40
2019-03-31T15:49:20.218Z,1.13
2019-03-31T15:54:23.434Z,1.43
2019-03-31T15:59:28.545Z,1.10
2019-03-31T16:04:31.619Z,1.40
2019-03-31T16:09:34.295Z,1.37
2019-03-31T16:14:36.911Z,1.50
2019-03-31T16:19:39.474Z,1.37
2019-03-31T16:24:45.345Z,1.67
2019-03-31T16:29:48.058Z,1.10
2019-03-31T16:34:52.501Z,1.33
2019-03-31T16:39:55.087Z,1.40
2019-03-31T16:44:58.692Z,1.00
2019-03-31T16:50:01.508Z,1.53
2019-03-31T16:55:05.024Z,1.00
2019-03-31T17:00:08.235Z,1.20
2019-03-31T17:05:21.841Z,1.63
2019-03-31T17:10:15.269Z,1.23
2019-03-31T17:15:18.173Z,0.90
2019-03-31T17:20:20.798Z,1.07
2019-03-31T17:25:23.385Z,1.30
2019-03-31T17:30:25.992Z,0.97
2019-03-31T17:35:28.864Z,0.90
2019-03-31T17:40:31.772Z,0.70
2019-03-31T17:45:34.394Z,1.50
2019-03-31T17:50:37.293Z,1.00
2019-03-31T17:55:40.168Z,1.23
2019-03-31T18:00:43.379Z,1.03
2019-03-31T18:05:46.283Z,1.03
2019-03-31T18:10:49.494Z,1.67
2019-03-31T18:15:52.218Z,0.80
2019-03-31T18:20:55.002Z,1.23
2019-03-31T18:25:57.614Z,1.07
2019-03-31T18:31:00.517Z,0.90
2019-03-31T18:36:03.394Z,1.63
2019-03-31T18:41:06.298Z,1.07
2019-03-31T18:46:09.202Z,0.80
2019-03-31T18:51:12.104Z,1.27
2019-03-31T18:56:34.364Z,1.03
2019-03-31T19:01:46.789Z,1.20
2019-03-31T19:07:27.169Z,0.83
2019-03-31T19:12:41.746Z,1.00
2019-03-31T19:18:04.044Z,0.93
2019-03-31T19:23:29.333Z,1.50
2019-03-31T19:28:50.083Z,1.07
2019-03-31T19:34:15.075Z,1.97
2019-03-31T19:39:35.858Z,1.70
2019-03-31T19:45:04.198Z,1.63
2019-03-31T19:50:26.482Z,1.50
2019-03-31T19:56:07.477Z,1.73
2019-03-31T20:01:26.077Z,1.57
2019-03-31T20:06:42.760Z,2.50
2019-03-31T20:12:16.988Z,1.63
2019-03-31T20:17:41.702Z,1.20
2019-03-31T20:23:09.794Z,1.50
2019-03-31T20:28:31.902Z,1.47
2019-03-31T20:34:01.989Z,1.50
2019-03-31T20:39:25.477Z,1.30
2019-03-31T20:44:28.377Z,1.73
2019-03-31T20:49:30.973Z,1.80
2019-03-31T20:54:33.964Z,1.90
2019-03-31T20:59:37.102Z,1.20
2019-03-31T21:04:40.100Z,1.70
2019-03-31T21:09:45.214Z,1.97
2019-03-31T21:14:47.435Z,1.93
2019-03-31T21:19:50.645Z,1.30
2019-03-31T21:24:53.548Z,1.50
2019-03-31T21:29:56.144Z,2.10
2019-03-31T21:34:58.740Z,1.43
2019-03-31T21:40:01.645Z,1.80
2019-03-31T21:45:05.183Z,1.30
2019-03-31T21:50:08.234Z,1.73
2019-03-31T21:55:11.274Z,1.40
2019-03-31T22:00:15.100Z,1.80
2019-03-31T22:05:18.001Z,1.87
2019-03-31T22:10:20.905Z,1.60
2019-03-31T22:15:24.641Z,2.57
2019-03-31T22:20:27.327Z,2.20
2019-03-31T22:25:30.229Z,1.47
2019-03-31T22:30:34.737Z,1.40
2019-03-31T22:35:37.572Z,2.13
2019-03-31T22:40:40.477Z,1.60
2019-03-31T22:45:43.377Z,1.50
2019-03-31T22:50:45.976Z,1.87
2019-03-31T22:55:48.511Z,1.40
2019-03-31T23:00:51.473Z,1.37
2019-03-31T23:05:54.376Z,1.50
2019-03-31T23:10:57.284Z,1.30
2019-03-31T23:16:00.182Z,1.60
2019-03-31T23:21:02.783Z,1.50
2019-03-31T23:26:05.681Z,1.70
2019-03-31T23:31:08.585Z,1.20
2019-03-31T23:36:13.096Z,1.60
2019-03-31T23:41:15.926Z,1.20
2019-03-31T23:46:18.549Z,1.30
2019-03-31T23:51:21.428Z,1.30
2019-03-31T23:56:24.022Z,1.23
